createdAt,value
2023-03-12T00:00:49.333Z,10.80
2023-03-12T00:03:17.981Z,11.23
2023-03-12T00:05:46.701Z,9.97
2023-03-12T00:08:16.713Z,9.57
2023-03-12T00:10:46.065Z,8.83
2023-03-12T00:13:14.036Z,9.83
2023-03-12T00:15:42.044Z,9.73
2023-03-12T00:18:10.123Z,8.80
2023-03-12T00:20:38.116Z,9.43
2023-03-12T00:23:06.105Z,9.40
2023-03-12T00:25:37.021Z,10.37
2023-03-12T00:28:06.729Z,10.57
2023-03-12T00:30:34.743Z,9.87
2023-03-12T00:33:02.777Z,9.77
2023-03-12T00:35:30.830Z,9.87
2023-03-12T00:37:58.842Z,9.37
2023-03-12T00:40:27.112Z,10.60
2023-03-12T00:42:55.077Z,10.60
2023-03-12T00:45:24.407Z,10.90
2023-03-12T00:47:52.418Z,12.20
2023-03-12T00:50:20.853Z,11.70
2023-03-12T00:52:48.943Z,11.90
2023-03-12T00:55:17.216Z,11.77
2023-03-12T00:57:45.223Z,12.27
2023-03-12T01:00:14.339Z,11.20
2023-03-12T01:02:43.725Z,9.63
2023-03-12T01:05:13.942Z,11.53
2023-03-12T01:07:42.260Z,8.83
2023-03-12T01:10:12.809Z,12.17
2023-03-12T01:12:40.854Z,9.67
2023-03-12T01:15:10.010Z,10.27
2023-03-12T01:17:38.206Z,8.50
2023-03-12T01:20:09.420Z,7.57
2023-03-12T01:22:38.274Z,7.97
2023-03-12T01:25:06.863Z,6.87
2023-03-12T01:27:34.914Z,8.03
2023-03-12T01:30:03.056Z,6.90
2023-03-12T01:32:31.123Z,8.40
2023-03-12T01:35:02.085Z,6.70
2023-03-12T01:37:32.750Z,7.80
2023-03-12T01:40:00.927Z,6.67
2023-03-12T01:42:28.929Z,5.90
2023-03-12T01:44:58.933Z,6.43
2023-03-12T01:47:27.426Z,6.07
2023-03-12T01:49:57.051Z,6.80
2023-03-12T01:52:28.550Z,6.33
2023-03-12T01:55:02.584Z,5.10
2023-03-12T01:57:35.923Z,6.10
2023-03-12T02:00:11.819Z,5.83
2023-03-12T02:02:41.145Z,6.23
2023-03-12T02:05:16.253Z,6.10
2023-03-12T02:07:44.370Z,5.33
2023-03-12T02:10:13.773Z,5.20
2023-03-12T02:12:42.451Z,4.90
2023-03-12T02:15:23.530Z,6.13
2023-03-12T02:17:51.486Z,6.00
2023-03-12T02:20:25.216Z,5.57
2023-03-12T02:23:01.952Z,5.57
2023-03-12T02:25:37.334Z,4.87
2023-03-12T02:28:08.523Z,7.43
2023-03-12T02:30:37.621Z,5.00
2023-03-12T02:33:08.516Z,5.67
2023-03-12T02:35:37.145Z,5.07
2023-03-12T02:38:25.588Z,6.27
2023-03-12T02:40:56.720Z,4.90
2023-03-12T02:43:24.876Z,6.43
2023-03-12T02:45:53.104Z,5.50
2023-03-12T02:48:21.196Z,5.90
2023-03-12T02:50:49.197Z,5.40
2023-03-12T02:53:17.234Z,6.30
2023-03-12T02:55:45.326Z,5.30
2023-03-12T02:58:14.652Z,5.07
2023-03-12T03:00:42.677Z,4.93
2023-03-12T03:03:10.637Z,7.23
2023-03-12T03:05:39.629Z,4.93
2023-03-12T03:08:08.906Z,5.73
2023-03-12T03:10:36.877Z,4.80
2023-03-12T03:13:04.897Z,4.93
2023-03-12T03:15:34.286Z,4.63
2023-03-12T03:18:03.930Z,5.10
2023-03-12T03:20:32.342Z,6.27
2023-03-12T03:23:00.287Z,6.73
2023-03-12T03:25:28.927Z,5.87
2023-03-12T03:27:56.982Z,6.87
2023-03-12T03:30:25.132Z,6.50
2023-03-12T03:32:54.535Z,5.63
2023-03-12T03:35:24.192Z,4.80
2023-03-12T03:37:52.184Z,6.10
2023-03-12T03:40:20.305Z,4.80
2023-03-12T03:42:48.351Z,7.50
2023-03-12T03:45:16.307Z,5.77
2023-03-12T03:47:44.290Z,5.10
2023-03-12T03:50:15.373Z,7.80
2023-03-12T03:52:43.378Z,5.00
2023-03-12T03:55:11.640Z,6.53
2023-03-12T03:57:39.650Z,6.97
2023-03-12T04:00:13.071Z,5.83
2023-03-12T04:02:41.341Z,6.97
2023-03-12T04:05:10.420Z,5.40
2023-03-12T04:07:39.944Z,5.03
2023-03-12T04:10:08.897Z,5.33
2023-03-12T04:12:43.865Z,5.80
2023-03-12T04:15:12.015Z,5.40
2023-03-12T04:17:40.079Z,6.10
2023-03-12T04:20:09.508Z,4.37
2023-03-12T04:22:38.994Z,7.10
2023-03-12T04:25:07.920Z,5.40
2023-03-12T04:27:36.859Z,6.80
2023-03-12T04:30:05.560Z,7.47
2023-03-12T04:32:33.579Z,7.30
2023-03-12T04:35:01.570Z,5.27
2023-03-12T04:37:29.746Z,6.13
2023-03-12T04:39:59.053Z,6.40
2023-03-12T04:42:27.152Z,5.87
2023-03-12T04:44:55.201Z,5.33
2023-03-12T04:47:23.199Z,5.33
2023-03-12T04:49:51.156Z,6.67
2023-03-12T04:52:19.177Z,5.63
2023-03-12T04:54:48.139Z,5.37
2023-03-12T04:57:17.545Z,5.80
2023-03-12T04:59:45.762Z,6.83
2023-03-12T05:02:13.874Z,7.87
2023-03-12T05:04:41.918Z,5.93
2023-03-12T05:07:09.936Z,4.97
2023-03-12T05:09:37.910Z,6.23
2023-03-12T05:12:06.499Z,7.63
2023-03-12T05:14:35.829Z,6.27
2023-03-12T05:17:05.226Z,7.20
2023-03-12T05:19:33.298Z,6.47
2023-03-12T05:22:01.277Z,7.80
2023-03-12T05:24:29.299Z,5.50
2023-03-12T05:26:57.268Z,6.10
2023-03-12T05:29:25.479Z,8.07
2023-03-12T05:32:01.421Z,5.90
2023-03-12T05:34:30.349Z,5.47
2023-03-12T05:37:00.133Z,6.27
2023-03-12T05:39:28.788Z,6.27
2023-03-12T05:41:57.333Z,8.20
2023-03-12T05:44:26.370Z,6.03
2023-03-12T05:46:57.149Z,7.03
2023-03-12T05:49:27.922Z,5.20
2023-03-12T05:51:55.951Z,4.90
2023-03-12T05:54:24.391Z,5.13
2023-03-12T05:56:52.950Z,6.73
2023-03-12T05:59:20.967Z,7.80
2023-03-12T06:01:49.034Z,6.73
2023-03-12T06:04:17.019Z,6.97
2023-03-12T06:06:46.452Z,13.47
2023-03-12T06:09:14.534Z,8.67
2023-03-12T06:11:42.490Z,7.33
2023-03-12T06:14:10.534Z,6.97
2023-03-12T06:16:38.657Z,7.43
2023-03-12T06:19:07.651Z,7.27
2023-03-12T06:21:38.160Z,6.20
2023-03-12T06:24:08.502Z,7.17
2023-03-12T06:26:36.519Z,6.50
2023-03-12T06:29:04.770Z,6.93
2023-03-12T06:31:32.863Z,6.70
2023-03-12T06:34:00.864Z,10.67
2023-03-12T06:36:28.836Z,7.43
2023-03-12T06:38:57.380Z,7.77
2023-03-12T06:41:27.078Z,6.37
2023-03-12T06:43:55.180Z,6.07
2023-03-12T06:46:25.200Z,8.73
2023-03-12T06:48:53.636Z,6.53
2023-03-12T06:51:21.760Z,6.63
2023-03-12T06:53:49.722Z,6.87
2023-03-12T06:56:17.840Z,7.60
2023-03-12T06:58:48.794Z,8.53
2023-03-12T07:01:16.766Z,6.73
2023-03-12T07:03:45.252Z,6.83
2023-03-12T07:06:17.561Z,6.03
2023-03-12T07:08:46.229Z,6.53
2023-03-12T07:11:14.609Z,7.17
2023-03-12T07:13:43.087Z,6.07
2023-03-12T07:16:12.996Z,11.60
2023-03-12T07:18:41.009Z,9.53
2023-03-12T07:21:09.010Z,6.93
2023-03-12T07:23:36.967Z,8.73
2023-03-12T07:26:06.146Z,7.30
2023-03-12T07:28:34.265Z,7.73
2023-03-12T07:31:02.975Z,6.77
2023-03-12T07:33:32.991Z,6.93
2023-03-12T07:36:15.417Z,7.57
2023-03-12T07:38:43.459Z,8.33
2023-03-12T07:41:11.452Z,6.27
2023-03-12T07:43:39.501Z,6.03
2023-03-12T07:46:07.549Z,9.17
2023-03-12T07:48:36.889Z,7.93
2023-03-12T07:51:05.246Z,7.67
2023-03-12T07:53:33.215Z,7.90
2023-03-12T07:56:01.275Z,8.97
2023-03-12T07:58:29.366Z,8.37
2023-03-12T08:00:57.883Z,7.60
2023-03-12T08:03:26.057Z,8.03
2023-03-12T08:06:00.331Z,7.70
2023-03-12T08:08:29.376Z,7.37
2023-03-12T08:10:57.396Z,8.77
2023-03-12T08:13:25.894Z,8.27
2023-03-12T08:15:54.868Z,8.87
2023-03-12T08:18:42.997Z,5.20
2023-03-12T08:21:16.385Z,8.13
2023-03-12T08:23:44.584Z,7.03
2023-03-12T08:26:12.615Z,8.40
2023-03-12T08:28:40.867Z,7.80
2023-03-12T08:31:09.486Z,6.73
2023-03-12T08:33:41.123Z,8.27
2023-03-12T08:36:09.886Z,9.83
2023-03-12T08:38:39.229Z,7.53
2023-03-12T08:41:10.300Z,7.23
2023-03-12T08:43:38.266Z,5.63
2023-03-12T08:46:06.517Z,4.83
2023-03-12T08:48:34.868Z,5.73
2023-03-12T08:51:05.900Z,5.55
2023-03-12T08:53:35.770Z,6.35
2023-03-12T08:56:06.247Z,5.43
2023-03-12T08:58:34.197Z,7.70
2023-03-12T09:01:02.279Z,8.57
2023-03-12T09:03:30.286Z,7.25
2023-03-12T09:06:06.098Z,6.63
2023-03-12T09:08:52.875Z,5.97
2023-03-12T09:11:22.388Z,9.07
2023-03-12T09:14:16.827Z,6.82
2023-03-12T09:16:38.321Z,7.13
2023-03-12T09:19:06.625Z,6.60
2023-03-12T09:21:34.601Z,6.97
2023-03-12T09:24:02.586Z,6.03
2023-03-12T09:26:47.345Z,6.33
2023-03-12T09:29:15.353Z,5.33
2023-03-12T09:31:46.458Z,5.78
2023-03-12T09:34:14.537Z,5.80
2023-03-12T09:36:42.492Z,4.88
2023-03-12T09:39:10.779Z,3.95
2023-03-12T09:41:42.231Z,4.35
2023-03-12T09:44:18.866Z,4.32
2023-03-12T09:46:51.777Z,5.35
2023-03-12T09:49:24.095Z,5.35
2023-03-12T09:51:56.433Z,4.50
2023-03-12T09:54:29.291Z,4.35
2023-03-12T09:57:10.328Z,5.25
2023-03-12T09:59:39.717Z,5.68
2023-03-12T10:02:37.740Z,6.63
2023-03-12T10:05:12.084Z,5.32
2023-03-12T10:07:46.324Z,4.60
2023-03-12T10:10:36.389Z,5.63
2023-03-12T10:13:18.428Z,4.72
2023-03-12T10:16:03.554Z,6.30
2023-03-12T10:18:43.162Z,4.47
2023-03-12T10:21:21.139Z,5.38
2023-03-12T10:24:25.414Z,5.60
2023-03-12T10:26:55.652Z,5.60
2023-03-12T10:29:27.329Z,4.00
2023-03-12T10:32:01.671Z,3.53
2023-03-12T10:34:37.592Z,5.63
2023-03-12T10:37:15.625Z,5.77
2023-03-12T10:39:43.773Z,4.30
2023-03-12T10:42:16.992Z,5.33
2023-03-12T10:44:46.427Z,5.63
2023-03-12T10:47:36.380Z,5.63
2023-03-12T10:50:19.245Z,5.28
2023-03-12T10:52:49.338Z,4.35
2023-03-12T10:55:29.429Z,4.47
2023-03-12T10:57:58.440Z,3.10
2023-03-12T11:00:28.462Z,3.90
2023-03-12T11:03:03.807Z,2.90
2023-03-12T11:05:34.688Z,4.05
2023-03-12T11:08:04.788Z,3.45
2023-03-12T11:10:44.561Z,2.72
2023-03-12T11:13:31.125Z,3.92
2023-03-12T11:16:01.906Z,4.25
2023-03-12T11:18:34.328Z,3.85
2023-03-12T11:21:18.006Z,3.78
2023-03-12T11:23:48.613Z,3.15
2023-03-12T11:26:32.215Z,3.83
2023-03-12T11:29:04.150Z,4.28
2023-03-12T11:31:35.797Z,3.97
2023-03-12T11:34:08.315Z,3.83
2023-03-12T11:36:46.945Z,2.88
2023-03-12T11:39:27.736Z,2.90
2023-03-12T11:42:19.203Z,2.70
2023-03-12T11:45:17.171Z,3.15
2023-03-12T11:47:55.310Z,2.40
2023-03-12T11:50:34.561Z,1.60
2023-03-12T11:53:18.952Z,3.13
2023-03-12T11:55:58.566Z,3.38
2023-03-12T11:58:36.154Z,2.30
2023-03-12T12:01:11.021Z,1.23
2023-03-12T12:04:05.328Z,1.77
2023-03-12T12:06:48.331Z,2.90
2023-03-12T12:09:37.675Z,3.50
2023-03-12T12:12:30.539Z,3.25
2023-03-12T12:15:15.774Z,3.92
2023-03-12T12:18:01.394Z,3.03
2023-03-12T12:20:55.118Z,4.35
2023-03-12T12:23:37.508Z,3.42
2023-03-12T12:26:11.258Z,2.22
2023-03-12T12:29:03.929Z,2.28
2023-03-12T12:31:40.428Z,2.08
2023-03-12T12:34:27.292Z,2.17
2023-03-12T12:37:03.348Z,1.65
2023-03-12T12:39:36.448Z,2.40
2023-03-12T12:42:10.672Z,2.13
2023-03-12T12:44:43.449Z,3.38
2023-03-12T12:47:18.368Z,1.52
2023-03-12T12:49:50.264Z,1.30
2023-03-12T12:52:21.022Z,2.25
2023-03-12T12:55:01.133Z,1.35
2023-03-12T12:57:36.928Z,2.25
2023-03-12T13:00:22.194Z,1.83
2023-03-12T13:02:51.557Z,4.30
2023-03-12T13:05:23.013Z,7.85
2023-03-12T13:07:50.976Z,1.25
2023-03-12T13:10:58.078Z,5.07
2023-03-12T13:13:30.655Z,5.40
2023-03-12T13:16:30.816Z,3.15
2023-03-12T13:19:00.725Z,3.97
2023-03-12T13:21:39.724Z,4.85
2023-03-12T13:24:23.261Z,4.85
2023-03-12T13:26:58.752Z,4.10
2023-03-12T13:29:39.675Z,5.40
2023-03-12T13:32:30.749Z,4.05
2023-03-12T13:34:59.036Z,4.95
2023-03-12T13:37:46.756Z,5.25
2023-03-12T13:40:40.232Z,9.32
2023-03-12T13:43:15.160Z,3.70
2023-03-12T13:45:57.153Z,3.25
2023-03-12T13:48:26.088Z,3.55
2023-03-12T13:50:56.546Z,2.90
2023-03-12T13:53:27.481Z,4.57
2023-03-12T13:56:03.494Z,3.33
2023-03-12T13:58:39.942Z,5.85
2023-03-12T14:01:15.195Z,6.88
2023-03-12T14:03:48.104Z,2.63
2023-03-12T14:06:20.537Z,2.20
2023-03-12T14:09:15.842Z,7.22
2023-03-12T14:11:54.200Z,2.85
2023-03-12T14:14:54.873Z,4.95
2023-03-12T14:17:27.233Z,1.70
2023-03-12T14:20:01.378Z,1.42
2023-03-12T14:22:33.605Z,3.53
2023-03-12T14:25:06.109Z,3.17
2023-03-12T14:27:35.355Z,0.75
2023-03-12T14:30:13.082Z,2.42
2023-03-12T14:32:44.921Z,3.08
2023-03-12T14:35:20.673Z,4.30
2023-03-12T14:37:55.681Z,3.08
2023-03-12T14:40:26.811Z,2.80
2023-03-12T14:42:55.621Z,1.63
2023-03-12T14:45:24.155Z,4.95
2023-03-12T14:47:56.881Z,1.92
2023-03-12T14:50:27.832Z,4.05
2023-03-12T14:52:56.957Z,1.67
2023-03-12T14:55:26.708Z,0.80
2023-03-12T14:58:05.223Z,2.30
2023-03-12T15:00:33.873Z,2.47
2023-03-12T15:03:06.453Z,3.80
2023-03-12T15:05:35.070Z,3.53
2023-03-12T15:08:04.622Z,3.80
2023-03-12T15:10:34.623Z,3.47
2023-03-12T15:13:04.075Z,2.95
2023-03-12T15:15:37.936Z,1.77
2023-03-12T15:18:09.760Z,3.25
2023-03-12T15:20:38.193Z,3.17
2023-03-12T15:23:07.828Z,4.95
2023-03-12T15:25:36.226Z,3.40
2023-03-12T15:28:25.173Z,6.30
2023-03-12T15:31:11.750Z,3.20
2023-03-12T15:33:42.228Z,2.45
2023-03-12T15:36:31.097Z,3.22
2023-03-12T15:39:03.171Z,6.32
2023-03-12T15:41:44.015Z,4.32
2023-03-12T15:44:20.229Z,4.40
2023-03-12T15:46:49.788Z,5.70
2023-03-12T15:49:25.517Z,6.38
2023-03-12T15:52:03.162Z,3.15
2023-03-12T15:54:32.171Z,5.07
2023-03-12T15:57:21.123Z,3.90
2023-03-12T16:00:08.041Z,5.72
2023-03-12T16:02:37.524Z,2.55
2023-03-12T16:05:09.133Z,5.57
2023-03-12T16:07:37.116Z,2.92
2023-03-12T16:10:05.940Z,3.63
2023-03-12T16:12:34.292Z,3.30
2023-03-12T16:15:02.281Z,2.15
2023-03-12T16:17:30.326Z,3.92
2023-03-12T16:19:58.295Z,2.65
2023-03-12T16:22:27.610Z,6.28
2023-03-12T16:24:55.582Z,5.47
2023-03-12T16:27:32.337Z,3.00
2023-03-12T16:30:00.988Z,5.35
2023-03-12T16:32:30.016Z,4.35
2023-03-12T16:34:58.045Z,2.67
2023-03-12T16:37:27.741Z,4.15
2023-03-12T16:39:55.772Z,4.78
2023-03-12T16:42:23.967Z,3.22
2023-03-12T16:44:52.032Z,3.35
2023-03-12T16:47:20.056Z,3.63
2023-03-12T16:49:48.427Z,2.67
2023-03-12T16:52:18.818Z,3.60
2023-03-12T16:54:50.080Z,4.25
2023-03-12T16:57:24.726Z,3.97
2023-03-12T16:59:52.936Z,5.55
2023-03-12T17:02:21.552Z,5.00
2023-03-12T17:04:51.021Z,3.75
2023-03-12T17:07:19.158Z,5.07
2023-03-12T17:09:48.593Z,4.47
2023-03-12T17:12:22.967Z,4.43
2023-03-12T17:14:51.740Z,8.27
2023-03-12T17:17:19.714Z,3.22
2023-03-12T17:19:47.683Z,3.95
2023-03-12T17:22:15.731Z,4.55
2023-03-12T17:24:44.839Z,5.35
2023-03-12T17:27:15.494Z,6.60
2023-03-12T17:29:43.623Z,4.45
2023-03-12T17:32:11.735Z,7.05
2023-03-12T17:34:39.704Z,5.15
2023-03-12T17:37:07.801Z,6.38
2023-03-12T17:39:36.057Z,4.78
2023-03-12T17:42:04.673Z,4.10
2023-03-12T17:44:36.672Z,4.10
2023-03-12T17:47:04.766Z,7.00
2023-03-12T17:49:32.767Z,12.63
2023-03-12T17:52:02.961Z,4.53
2023-03-12T17:54:31.182Z,5.18
2023-03-12T17:56:59.104Z,3.42
2023-03-12T17:59:27.085Z,5.10
2023-03-12T18:01:56.836Z,3.53
2023-03-12T18:04:24.800Z,6.55
2023-03-12T18:06:53.978Z,8.40
2023-03-12T18:09:23.329Z,3.88
2023-03-12T18:11:51.354Z,5.90
2023-03-12T18:14:19.458Z,6.43
2023-03-12T18:16:47.434Z,2.50
2023-03-12T18:19:17.078Z,6.10
2023-03-12T18:21:45.076Z,4.97
2023-03-12T18:24:14.538Z,5.50
2023-03-12T18:26:42.785Z,6.57
2023-03-12T18:29:10.809Z,7.32
2023-03-12T18:31:39.043Z,4.55
2023-03-12T18:34:07.079Z,4.80
2023-03-12T18:36:36.768Z,5.65
2023-03-12T18:39:06.382Z,5.32
2023-03-12T18:41:34.721Z,6.55
2023-03-12T18:44:03.360Z,5.72
2023-03-12T18:46:31.384Z,7.43
2023-03-12T18:49:05.292Z,4.90
2023-03-12T18:51:33.473Z,5.03
2023-03-12T18:54:03.051Z,7.22
2023-03-12T18:56:31.264Z,6.32
2023-03-12T18:58:59.242Z,5.97
2023-03-12T19:01:27.411Z,5.00
2023-03-12T19:03:55.554Z,6.30
2023-03-12T19:06:23.521Z,4.63
2023-03-12T19:08:51.503Z,3.83
2023-03-12T19:11:20.819Z,4.57
2023-03-12T19:13:52.085Z,8.23
2023-03-12T19:16:22.570Z,5.23
2023-03-12T19:18:51.641Z,4.23
2023-03-12T19:21:19.766Z,6.77
2023-03-12T19:23:47.766Z,7.53
2023-03-12T19:26:16.089Z,3.05
2023-03-12T19:28:45.473Z,6.50
2023-03-12T19:31:15.366Z,4.10
2023-03-12T19:33:44.802Z,3.25
2023-03-12T19:36:15.830Z,2.47
2023-03-12T19:38:44.053Z,2.00
2023-03-12T19:41:12.498Z,3.78
2023-03-12T19:43:41.275Z,3.10
2023-03-12T19:46:10.632Z,4.03
2023-03-12T19:48:38.699Z,3.37
2023-03-12T19:51:07.475Z,2.55
2023-03-12T19:53:35.428Z,5.43
2023-03-12T19:56:03.386Z,2.67
2023-03-12T19:58:31.391Z,5.53
2023-03-12T20:01:00.436Z,3.23
2023-03-12T20:03:32.966Z,4.33
2023-03-12T20:06:01.284Z,4.53
2023-03-12T20:08:31.868Z,5.13
2023-03-12T20:11:04.206Z,3.93
2023-03-12T20:13:32.244Z,5.20
2023-03-12T20:16:00.792Z,3.60
2023-03-12T20:18:30.198Z,2.60
2023-03-12T20:20:58.172Z,6.47
2023-03-12T20:23:26.189Z,5.17
2023-03-12T20:25:54.474Z,5.03
2023-03-12T20:28:22.489Z,3.77
2023-03-12T20:30:55.589Z,4.33
2023-03-12T20:33:25.600Z,3.70
2023-03-12T20:36:26.587Z,4.30
2023-03-12T20:38:55.982Z,5.07
2023-03-12T20:41:24.717Z,5.53
2023-03-12T20:43:56.496Z,4.63
2023-03-12T20:46:25.144Z,2.63
2023-03-12T20:48:54.984Z,4.03
2023-03-12T20:51:24.730Z,4.10
2023-03-12T20:53:52.824Z,4.97
2023-03-12T20:56:22.170Z,2.70
2023-03-12T20:58:50.191Z,6.63
2023-03-12T21:01:18.335Z,6.63
2023-03-12T21:03:46.349Z,5.20
2023-03-12T21:06:14.341Z,4.37
2023-03-12T21:08:42.303Z,6.30
2023-03-12T21:11:11.053Z,5.72
2023-03-12T21:13:40.425Z,3.47
2023-03-12T21:16:10.983Z,5.88
2023-03-12T21:18:38.949Z,4.93
2023-03-12T21:21:08.705Z,6.90
2023-03-12T21:23:37.135Z,6.03
2023-03-12T21:26:09.182Z,6.55
2023-03-12T21:28:37.705Z,7.90
2023-03-12T21:31:10.144Z,4.53
2023-03-12T21:33:38.644Z,5.57
2023-03-12T21:36:08.393Z,6.93
2023-03-12T21:38:36.406Z,5.90
2023-03-12T21:41:07.077Z,6.20
2023-03-12T21:43:37.434Z,6.80
2023-03-12T21:46:08.419Z,6.73
2023-03-12T21:48:38.015Z,5.30
2023-03-12T21:51:07.614Z,2.93
2023-03-12T21:53:36.040Z,4.20
2023-03-12T21:56:05.235Z,4.77
2023-03-12T21:58:34.396Z,6.95
2023-03-12T22:01:09.316Z,6.03
2023-03-12T22:03:38.321Z,4.70
2023-03-12T22:06:07.209Z,4.60
2023-03-12T22:08:35.938Z,4.83
2023-03-12T22:11:04.500Z,4.00
2023-03-12T22:13:33.005Z,6.33
2023-03-12T22:16:03.279Z,5.77
2023-03-12T22:18:33.069Z,3.20
2023-03-12T22:21:03.249Z,5.47
2023-03-12T22:23:31.929Z,3.37
2023-03-12T22:26:01.929Z,4.23
2023-03-12T22:28:31.126Z,5.88
2023-03-12T22:31:00.003Z,3.00
2023-03-12T22:33:28.165Z,4.77
2023-03-12T22:35:58.210Z,3.90
2023-03-12T22:38:26.708Z,4.90
2023-03-12T22:40:55.922Z,3.47
2023-03-12T22:43:25.931Z,6.93
2023-03-12T22:45:54.374Z,5.13
2023-03-12T22:48:22.392Z,6.35
2023-03-12T22:50:54.583Z,6.63
2023-03-12T22:53:24.136Z,5.23
2023-03-12T22:55:58.254Z,7.17
2023-03-12T22:58:26.263Z,11.18
2023-03-12T23:01:00.558Z,6.50
2023-03-12T23:03:40.558Z,8.00
2023-03-12T23:06:11.683Z,4.55
2023-03-12T23:08:41.226Z,3.50
2023-03-12T23:11:10.685Z,5.53
2023-03-12T23:13:41.311Z,3.22
2023-03-12T23:16:11.866Z,4.55
2023-03-12T23:18:40.064Z,3.45
2023-03-12T23:21:11.273Z,2.17
2023-03-12T23:23:42.124Z,4.47
2023-03-12T23:26:13.872Z,3.47
2023-03-12T23:28:41.921Z,5.30
2023-03-12T23:31:11.366Z,4.70
2023-03-12T23:33:39.805Z,5.07
2023-03-12T23:36:10.666Z,1.85
2023-03-12T23:38:40.336Z,2.67
2023-03-12T23:41:09.942Z,2.22
2023-03-12T23:43:37.999Z,3.67
2023-03-12T23:46:08.206Z,2.80
2023-03-12T23:48:38.347Z,3.20
2023-03-12T23:51:09.231Z,2.25
2023-03-12T23:53:38.348Z,1.02
2023-03-12T23:56:09.868Z,3.63
2023-03-12T23:58:38.003Z,1.60
